Time;durP1;ratioP1;P1;durP2;ratioP2;P2;SDS_P1;SDS_P2;PMS_P1;PMS_P2;Temp;Humidity;BMP_temperature;BMP_pressure;BME280_temperature;BME280_humidity;BME280_pressure;Samples;Min_cycle;Max_cycle;Signal;HPM_P1;HPM_P2
2022/10/18 00:05:06;;;;;;;13.07;8.33;;;;;17.20;99783.00;;;;16514100;28;20228;-48
2022/10/18 00:13:09;;;;;;;10.83;8.53;;;;;17.30;99792.00;;;;16513378;28;20226;-48
2022/10/18 00:21:15;;;;;;;7.70;6.93;;;;;17.50;99791.00;;;;16504576;28;20239;-48
2022/10/18 00:29:17;;;;;;;17.00;8.30;;;;;17.10;99794.00;;;;16513749;28;20220;-48
2022/10/18 00:37:21;;;;;;;12.93;7.83;;;;;17.00;99793.00;;;;16513968;28;20223;-48
2022/10/18 00:45:24;;;;;;;13.23;8.00;;;;;17.00;99785.00;;;;16516839;28;20278;-48
2022/10/18 00:53:28;;;;;;;10.80;7.07;;;;;16.80;99794.00;;;;16510114;28;20209;-48
2022/10/18 01:01:31;;;;;;;17.80;8.27;;;;;16.60;99787.00;;;;16511341;28;20228;-48
2022/10/18 01:09:39;;;;;;;11.10;7.30;;;;;16.70;99797.00;;;;16526222;28;20230;-48
2022/10/18 01:17:49;;;;;;;9.20;8.30;;;;;16.70;99793.00;;;;16523581;28;20306;-48
2022/10/18 01:26:00;;;;;;;12.97;7.60;;;;;16.80;99783.00;;;;16519100;28;20235;-48
2022/10/18 01:43:27;;;;;;;10.57;6.60;;;;;16.70;99783.00;;;;16514342;28;20192;-49
2022/10/18 01:51:31;;;;;;;12.17;6.37;;;;;16.60;99786.00;;;;16520003;28;20220;-49
2022/10/18 01:59:44;;;;;;;10.60;6.77;;;;;16.70;99771.00;;;;16520535;28;20224;-49
2022/10/18 02:07:50;;;;;;;11.83;6.63;;;;;16.70;99776.00;;;;16522237;28;20231;-49
2022/10/18 02:15:56;;;;;;;11.23;6.33;;;;;16.70;99778.00;;;;16512631;28;20228;-48
2022/10/18 02:23:59;;;;;;;24.77;6.70;;;;;16.60;99782.00;;;;16517136;28;20208;-48
2022/10/18 02:32:08;;;;;;;8.03;7.17;;;;;16.90;99775.00;;;;16520043;28;20228;-48
2022/10/18 02:40:11;;;;;;;6.43;5.83;;;;;16.80;99759.00;;;;16515935;28;20236;-48
2022/10/18 02:48:15;;;;;;;8.07;7.03;;;;;16.80;99762.00;;;;16520392;28;20207;-48
2022/10/18 02:56:17;;;;;;;8.43;7.57;;;;;16.80;99759.00;;;;16517603;28;20224;-48
2022/10/18 03:04:21;;;;;;;8.60;7.40;;;;;16.60;99765.00;;;;16514066;28;20207;-48
2022/10/18 03:12:23;;;;;;;8.47;7.00;;;;;16.60;99758.00;;;;16519603;28;20207;-48
2022/10/18 03:20:27;;;;;;;12.40;7.13;;;;;16.50;99765.00;;;;16516896;28;20223;-48
2022/10/18 03:28:29;;;;;;;12.50;7.07;;;;;16.50;99760.00;;;;16515735;28;20227;-47
2022/10/18 03:36:33;;;;;;;9.10;6.10;;;;;16.80;99753.00;;;;16514096;28;20238;-48
2022/10/18 03:44:36;;;;;;;9.70;6.70;;;;;16.60;99753.00;;;;16503713;28;20283;-48
2022/10/18 03:52:39;;;;;;;8.73;7.37;;;;;16.70;99745.00;;;;16503784;28;20211;-48
2022/10/18 04:00:42;;;;;;;7.30;5.83;;;;;16.60;99753.00;;;;16503113;28;20231;-48
2022/10/18 04:08:46;;;;;;;7.43;6.10;;;;;16.80;99756.00;;;;16492319;28;20599;-48
2022/10/18 04:16:48;;;;;;;7.40;6.60;;;;;16.80;99756.00;;;;16504642;28;20228;-47
2022/10/18 04:24:52;;;;;;;11.60;6.63;;;;;16.80;99768.00;;;;16511769;28;20477;-48
2022/10/18 04:32:55;;;;;;;6.97;5.80;;;;;16.70;99763.00;;;;16508199;28;20215;-48
2022/10/18 04:40:58;;;;;;;6.83;5.73;;;;;16.70;99767.00;;;;16509770;28;20254;-48
2022/10/18 04:49:01;;;;;;;8.07;5.57;;;;;16.70;99776.00;;;;16520381;28;20215;-47
2022/10/18 04:57:05;;;;;;;9.47;7.50;;;;;17.00;99779.00;;;;16509442;28;20227;-48
2022/10/18 05:05:07;;;;;;;8.83;5.67;;;;;17.50;99766.00;;;;16508482;28;20224;-48
2022/10/18 05:13:11;;;;;;;7.37;5.73;;;;;17.40;99747.00;;;;16507905;28;21101;-49
2022/10/18 05:21:14;;;;;;;7.50;6.40;;;;;16.40;99764.00;;;;16512827;28;20231;-48
2022/10/18 05:29:18;;;;;;;10.20;6.57;;;;;17.30;99757.00;;;;16518777;28;21683;-48
2022/10/18 05:37:20;;;;;;;16.87;6.90;;;;;17.40;99754.00;;;;16513466;28;20235;-48
2022/10/18 05:45:24;;;;;;;7.40;6.00;;;;;17.60;99760.00;;;;16510251;28;20223;-49
2022/10/18 05:53:27;;;;;;;11.00;6.70;;;;;17.50;99763.00;;;;16517426;28;20207;-48
2022/10/18 06:01:31;;;;;;;9.53;6.50;;;;;17.30;99757.00;;;;16517761;28;20704;-49
2022/10/18 06:09:33;;;;;;;7.57;6.67;;;;;17.40;99760.00;;;;16520204;28;20224;-49
2022/10/18 06:17:37;;;;;;;9.47;6.43;;;;;17.00;99758.00;;;;16513207;28;20301;-49
2022/10/18 06:25:39;;;;;;;7.33;6.40;;;;;16.40;99763.00;;;;16511475;28;20220;-49
2022/10/18 06:33:44;;;;;;;9.53;6.00;;;;;17.10;99760.00;;;;16515825;28;20228;-48
2022/10/18 06:41:46;;;;;;;7.23;5.43;;;;;17.70;99765.00;;;;16511330;28;20244;-48
2022/10/18 06:49:56;;;;;;;7.00;5.37;;;;;18.40;99761.00;;;;16512310;28;20260;-49
2022/10/18 06:57:58;;;;;;;7.57;5.37;;;;;18.70;99770.00;;;;16511507;28;20223;-48
2022/10/18 07:06:02;;;;;;;8.60;5.70;;;;;19.10;99765.00;;;;16506972;28;20220;-49
2022/10/18 07:14:05;;;;;;;9.23;5.57;;;;;19.30;99765.00;;;;16512779;28;20207;-49
2022/10/18 07:22:09;;;;;;;8.30;4.80;;;;;18.80;99769.00;;;;16508883;28;20227;-48
2022/10/18 07:30:12;;;;;;;7.77;5.50;;;;;18.40;99771.00;;;;16506996;28;20232;-49
2022/10/18 07:38:15;;;;;;;8.87;6.60;;;;;18.10;99785.00;;;;16496428;28;20220;-48
2022/10/18 07:46:19;;;;;;;13.00;6.57;;;;;17.90;99797.00;;;;16504341;28;20223;-48
2022/10/18 07:54:22;;;;;;;7.40;5.60;;;;;18.10;99788.00;;;;16502695;28;20214;-48
2022/10/18 08:02:25;;;;;;;12.93;6.87;;;;;18.20;99795.00;;;;16500453;28;20228;-48
2022/10/18 08:10:29;;;;;;;9.60;7.23;;;;;18.50;99783.00;;;;16500601;28;20724;-48
2022/10/18 08:18:31;;;;;;;10.20;6.00;;;;;18.80;99789.00;;;;16512212;28;20231;-48
2022/10/18 08:26:35;;;;;;;8.50;6.70;;;;;19.20;99805.00;;;;16519989;28;20222;-49
2022/10/18 08:34:37;;;;;;;14.80;6.87;;;;;19.40;99806.00;;;;16512217;28;20208;-48
2022/10/18 08:42:51;;;;;;;14.40;7.07;;;;;19.60;99812.00;;;;16511053;28;20266;-48
2022/10/18 08:50:55;;;;;;;14.90;7.03;;;;;19.90;99803.00;;;;16510692;28;20226;-49
2022/10/18 08:58:59;;;;;;;8.60;6.20;;;;;20.60;99804.00;;;;16510293;28;20232;-48
2022/10/18 09:07:15;;;;;;;15.50;8.00;;;;;21.00;99802.00;;;;16515372;28;20212;-48
2022/10/18 09:15:22;;;;;;;11.63;7.63;;;;;21.10;99801.00;;;;16498751;28;22910;-49
2022/10/18 09:23:34;;;;;;;12.13;6.03;;;;;21.30;99796.00;;;;16516426;28;20250;-49
2022/10/18 09:31:46;;;;;;;7.67;6.33;;;;;23.00;99794.00;;;;16506626;28;20226;-49
2022/10/18 09:39:50;;;;;;;12.03;6.33;;;;;24.70;99789.00;;;;16515070;28;20228;-48
2022/10/18 09:48:04;;;;;;;9.67;7.47;;;;;26.40;99790.00;;;;16516114;28;20223;-49
2022/10/18 09:56:09;;;;;;;15.77;5.60;;;;;24.00;99812.00;;;;16507899;28;20216;-49
2022/10/18 10:04:14;;;;;;;9.03;5.70;;;;;23.10;99820.00;;;;16525699;23;20580;-80
2022/10/18 10:12:35;;;;;;;5.23;4.70;;;;;23.00;99834.00;;;;16505780;28;20250;-79
2022/10/18 10:20:44;;;;;;;11.03;4.70;;;;;22.80;99832.00;;;;16494379;28;20394;-78
2022/10/18 10:28:47;;;;;;;4.73;4.10;;;;;23.30;99827.00;;;;16501641;28;20614;-79
2022/10/18 10:36:52;;;;;;;6.70;4.60;;;;;23.60;99825.00;;;;16507448;28;20227;-79
2022/10/18 10:44:56;;;;;;;5.00;4.33;;;;;25.10;99823.00;;;;16517811;28;20676;-78
2022/10/18 10:53:00;;;;;;;6.03;4.70;;;;;24.20;99826.00;;;;16504350;28;20264;-79
2022/10/18 11:01:22;;;;;;;7.37;4.50;;;;;24.70;99833.00;;;;16495666;28;20348;-77
2022/10/18 11:09:57;;;;;;;6.37;4.40;;;;;24.30;99824.00;;;;16499194;28;20358;-77
2022/10/18 11:18:04;;;;;;;7.77;5.20;;;;;24.50;99818.00;;;;16458832;28;20228;-78
2022/10/18 11:26:35;;;;;;;8.77;4.83;;;;;25.30;99818.00;;;;16488466;28;20835;-79
2022/10/18 11:34:49;;;;;;;7.10;5.17;;;;;23.80;99813.00;;;;16495759;28;20208;-78
2022/10/18 11:42:58;;;;;;;9.30;4.50;;;;;26.40;99804.00;;;;16487529;28;20545;-76
2022/10/18 11:51:04;;;;;;;5.57;4.70;;;;;25.90;99806.00;;;;16490988;28;20289;-77
2022/10/18 11:59:25;;;;;;;7.90;4.50;;;;;25.60;99799.00;;;;16501576;28;20262;-79
2022/10/18 12:07:31;;;;;;;4.50;3.73;;;;;25.70;99801.00;;;;16507269;28;20215;-78
2022/10/18 12:15:37;;;;;;;9.00;4.77;;;;;26.20;99782.00;;;;16496753;28;20495;-79
2022/10/18 12:23:44;;;;;;;8.17;5.57;;;;;28.40;99785.00;;;;16498105;28;20226;-79
2022/10/18 12:31:51;;;;;;;5.90;4.17;;;;;26.00;99773.00;;;;16483516;28;20312;-79
2022/10/18 12:39:55;;;;;;;8.63;3.97;;;;;25.90;99772.00;;;;16495896;28;20228;-78
2022/10/18 12:48:01;;;;;;;5.60;3.20;;;;;26.70;99773.00;;;;16506646;28;20261;-78
2022/10/18 12:56:35;;;;;;;5.93;3.37;;;;;26.30;99771.00;;;;16505743;28;20228;-79
2022/10/18 13:04:39;;;;;;;6.40;3.20;;;;;24.90;99775.00;;;;16519012;28;20684;-79
2022/10/18 13:12:58;;;;;;;8.07;4.60;;;;;24.70;99779.00;;;;16527618;28;20196;-78
2022/10/18 13:21:10;;;;;;;4.47;4.03;;;;;25.60;99783.00;;;;16534044;28;20232;-78
2022/10/18 13:29:28;;;;;;;4.97;4.13;;;;;25.50;99784.00;;;;16522274;28;20477;-79
2022/10/18 13:37:32;;;;;;;4.77;3.27;;;;;25.80;99769.00;;;;16533149;28;20220;-79
2022/10/18 13:45:55;;;;;;;4.03;3.10;;;;;25.80;99776.00;;;;16531164;28;20254;-79
2022/10/18 13:54:03;;;;;;;4.93;3.30;;;;;25.20;99774.00;;;;16520441;28;20225;-78
2022/10/18 14:02:36;;;;;;;2.97;2.27;;;;;24.10;99778.00;;;;16516839;28;20263;-78
2022/10/18 14:10:46;;;;;;;7.80;2.83;;;;;23.80;99785.00;;;;16512621;28;20224;-79
2022/10/18 14:18:49;;;;;;;8.03;4.60;;;;;23.50;99797.00;;;;16508464;28;20267;-79
2022/10/18 14:27:16;;;;;;;5.03;3.17;;;;;23.30;99802.00;;;;16505755;28;20213;-79
2022/10/18 14:35:20;;;;;;;4.40;4.07;;;;;23.00;99810.00;;;;16521923;28;20278;-78
2022/10/18 14:43:23;;;;;;;5.30;4.70;;;;;23.20;99813.00;;;;16500159;28;20687;-78
2022/10/18 14:51:26;;;;;;;5.70;4.17;;;;;23.00;99819.00;;;;16499622;28;20302;-81
2022/10/18 14:59:32;;;;;;;10.20;4.30;;;;;22.80;99811.00;;;;16506642;28;20298;-79
2022/10/18 15:07:35;;;;;;;4.93;4.23;;;;;23.40;99807.00;;;;16494853;28;20219;-79
2022/10/18 15:15:40;;;;;;;9.40;5.30;;;;;23.70;99806.00;;;;16498135;28;20236;-78
2022/10/18 15:23:42;;;;;;;9.63;4.53;;;;;24.40;99802.00;;;;16543575;23;20231;-48
2022/10/18 15:31:47;;;;;;;7.10;4.17;;;;;23.30;99810.00;;;;16532678;28;20220;-48
2022/10/18 15:39:50;;;;;;;4.03;3.63;;;;;22.80;99813.00;;;;16516582;28;20223;-48
2022/10/18 15:48:01;;;;;;;7.80;4.13;;;;;23.20;99813.00;;;;16515037;28;20204;-48
2022/10/18 15:56:06;;;;;;;5.63;4.17;;;;;22.90;99811.00;;;;16513295;28;20223;-48
2022/10/18 16:04:18;;;;;;;8.50;4.30;;;;;23.00;99810.00;;;;16533519;28;20258;-47
2022/10/18 16:12:20;;;;;;;13.20;5.40;;;;;22.30;99820.00;;;;16508155;28;20215;-47
2022/10/18 16:20:26;;;;;;;4.97;4.47;;;;;22.30;99817.00;;;;16512301;28;20238;-47
2022/10/18 16:28:30;;;;;;;6.80;6.10;;;;;22.30;99828.00;;;;16523338;28;20777;-48
2022/10/18 16:36:34;;;;;;;7.03;5.20;;;;;21.70;99829.00;;;;16533400;28;20214;-48
2022/10/18 16:44:36;;;;;;;5.73;5.00;;;;;21.60;99835.00;;;;16536967;28;20238;-47
2022/10/18 16:52:40;;;;;;;6.20;5.37;;;;;21.50;99842.00;;;;16528195;28;20223;-47
2022/10/18 17:00:43;;;;;;;6.07;5.53;;;;;21.30;99855.00;;;;16542155;28;20336;-47
2022/10/18 17:08:47;;;;;;;5.77;5.27;;;;;21.50;99867.00;;;;16554469;28;20230;-46
2022/10/18 17:16:50;;;;;;;5.87;5.27;;;;;21.30;99874.00;;;;16561887;28;20300;-47
2022/10/18 17:24:53;;;;;;;5.83;5.33;;;;;21.20;99874.00;;;;16543031;28;20751;-58
2022/10/18 17:32:56;;;;;;;6.10;5.60;;;;;21.20;99875.00;;;;16545449;28;20223;-47
2022/10/18 17:41:00;;;;;;;6.33;5.73;;;;;20.90;99884.00;;;;16550545;28;20234;-47
2022/10/18 17:49:02;;;;;;;8.60;6.33;;;;;20.90;99889.00;;;;16534390;28;20232;-47
2022/10/18 17:57:06;;;;;;;5.87;5.27;;;;;21.40;99886.00;;;;16542958;28;20211;-47
2022/10/18 18:05:09;;;;;;;6.97;6.07;;;;;21.00;99904.00;;;;16544363;28;20219;-47
2022/10/18 18:13:13;;;;;;;17.03;7.20;;;;;22.00;99896.00;;;;16549337;28;20230;-48
2022/10/18 18:21:15;;;;;;;9.27;6.20;;;;;21.00;99909.00;;;;16530255;28;20555;-47
2022/10/18 18:29:19;;;;;;;9.47;6.40;;;;;20.40;99907.00;;;;16556669;23;20580;-47
2022/10/18 18:37:21;;;;;;;11.93;7.23;;;;;19.60;99910.00;;;;16518482;28;20687;-48
2022/10/18 18:45:25;;;;;;;24.90;14.40;;;;;19.30;99906.00;;;;16469901;28;20239;-46
2022/10/18 18:53:28;;;;;;;13.87;7.90;;;;;18.90;99913.00;;;;16470919;28;20226;-47
2022/10/18 19:01:33;;;;;;;9.57;7.60;;;;;19.00;99908.00;;;;16480284;28;20228;-48
2022/10/18 19:09:37;;;;;;;13.43;9.17;;;;;18.50;99921.00;;;;16473847;28;20708;-48
2022/10/18 19:17:41;;;;;;;9.87;8.67;;;;;18.50;99908.00;;;;16459575;28;20752;-48
2022/10/18 19:25:43;;;;;;;10.77;8.87;;;;;18.20;99906.00;;;;16441723;28;20311;-48
2022/10/18 19:33:47;;;;;;;10.10;9.10;;;;;17.90;99907.00;;;;16448909;28;20229;-47
2022/10/18 19:41:51;;;;;;;16.53;9.40;;;;;17.70;99915.00;;;;16448565;28;20235;-46
2022/10/18 19:49:55;;;;;;;9.60;8.70;;;;;17.60;99911.00;;;;16433243;28;20300;-48
2022/10/18 19:57:58;;;;;;;12.37;9.10;;;;;17.60;99902.00;;;;16435479;28;20391;-47
2022/10/18 20:06:02;;;;;;;15.40;9.53;;;;;17.40;99912.00;;;;16422125;28;20220;-47
2022/10/18 20:14:05;;;;;;;14.67;9.73;;;;;17.20;99910.00;;;;16467557;28;20242;-48
2022/10/18 20:22:08;;;;;;;10.00;9.00;;;;;17.00;99908.00;;;;16463565;28;20234;-47
2022/10/18 20:30:11;;;;;;;10.57;9.70;;;;;17.00;99921.00;;;;16471086;28;20310;-48
2022/10/18 20:38:15;;;;;;;9.90;8.90;;;;;16.90;99919.00;;;;16464968;28;20221;-47
2022/10/18 20:46:18;;;;;;;15.73;9.90;;;;;17.00;99907.00;;;;16433713;28;20767;-47
2022/10/18 20:54:22;;;;;;;10.77;9.23;;;;;16.70;99917.00;;;;16450034;28;20243;-48
2022/10/18 21:02:24;;;;;;;16.07;9.80;;;;;16.80;99910.00;;;;16449484;28;20752;-48
2022/10/18 21:10:28;;;;;;;11.00;9.90;;;;;16.30;99904.00;;;;16449600;28;20231;-49
2022/10/18 21:18:32;;;;;;;11.83;10.03;;;;;16.50;99898.00;;;;16470170;28;20306;-48
2022/10/18 21:26:36;;;;;;;11.77;9.50;;;;;16.50;99902.00;;;;16492594;28;20748;-48
2022/10/18 21:34:39;;;;;;;13.50;9.57;;;;;16.50;99888.00;;;;16479260;28;20256;-48
2022/10/18 21:42:43;;;;;;;12.03;8.70;;;;;16.60;99891.00;;;;16479276;28;20228;-48
2022/10/18 21:50:45;;;;;;;16.10;9.37;;;;;16.70;99885.00;;;;16469862;28;20227;-48
2022/10/18 21:58:49;;;;;;;20.13;9.90;;;;;16.40;99875.00;;;;16482444;28;20247;-48
2022/10/18 22:06:52;;;;;;;10.90;8.40;;;;;16.30;99867.00;;;;16488533;28;20204;-47
2022/10/18 22:14:55;;;;;;;11.37;8.77;;;;;16.00;99871.00;;;;16468784;28;20620;-48
2022/10/18 22:22:58;;;;;;;12.60;9.43;;;;;15.80;99870.00;;;;16463142;28;20243;-48
2022/10/18 22:31:01;;;;;;;15.10;9.77;;;;;16.10;99869.00;;;;16463992;28;20228;-47
2022/10/18 22:39:05;;;;;;;12.20;9.30;;;;;15.80;99859.00;;;;16471945;28;20231;-47
2022/10/18 22:47:08;;;;;;;11.67;8.97;;;;;15.70;99860.00;;;;16461875;28;20201;-48
2022/10/18 22:55:11;;;;;;;11.57;9.50;;;;;16.10;99854.00;;;;16473787;28;20225;-48
2022/10/18 23:03:17;;;;;;;10.67;9.67;;;;;16.10;99851.00;;;;16466609;28;20232;-47
2022/10/18 23:11:19;;;;;;;13.03;9.57;;;;;16.10;99845.00;;;;16482891;28;20221;-47
2022/10/18 23:19:23;;;;;;;15.50;10.53;;;;;15.90;99841.00;;;;16467962;28;20794;-48
2022/10/18 23:27:25;;;;;;;11.47;10.40;;;;;16.20;99819.00;;;;16463989;28;20571;-48
2022/10/18 23:35:29;;;;;;;15.73;9.53;;;;;16.60;99830.00;;;;16470463;28;20227;-48
2022/10/18 23:43:32;;;;;;;11.40;10.07;;;;;17.30;99823.00;;;;16451348;28;20236;-48
2022/10/18 23:51:36;;;;;;;13.53;10.43;;;;;16.50;99827.00;;;;16464915;28;20220;-48
2022/10/18 23:59:38;;;;;;;12.10;9.57;;;;;15.90;99841.00;;;;16477991;28;20243;-48
